• Join FlightAware (Why Join?)
  • Login
  • US Flag 
07:05PM EDT


 

Airport Tracker/Info


-or-


 

Live Flight TrackerFlight Track Log ✈ EGF4097 ✈ 26-Feb-2012 ✈ KORD - CYOW

Flight Track Log - Related Links

Times and Time Zones

All times are in EST time to prevent confusion due to time zone crossing. See the EGF4097 flight status page for this flight to view local times or setup timezone preferences in your user account.

Time Position Orientation Groundspeed Altitude Reporting Facility
EST Latitude Longitude Course Direction KTS MPH feet Rate Location/Type
04:17PM 41.9893 -87.7713 212° Southwest  Level FlightAware Approximate
04:19PM 41.9167 -87.8333 72° East 249 287 4,700  Level Chicago TRACON
04:21PM 41.9744 -87.5958 71° East 286 329 8,200 1,680 Climbing Chicago Center
04:22PM 42.0039 -87.4833 70° East 297 342 10,500 1,800 Climbing Chicago Center
04:23PM 42.0353 -87.3650 71° East 318 366 11,800 1,140 Climbing Chicago Center
04:24PM 42.0703 -87.2269 70° East 353 406 12,800 960 Climbing Chicago Center
04:25PM 42.1092 -87.0828 84° East 385 443 13,800 1,080 Climbing Chicago Center
04:26PM 42.1206 -86.9228 89° East 424 488 15,000 1,200 Climbing Chicago Center
04:27PM 42.1233 -86.7603 86° East 424 488 16,200 1,200 Climbing Chicago Center
04:28PM 42.1303 -86.6089 87° East 442 509 17,400 1,200 Climbing Chicago Center
04:29PM 42.1361 -86.4264 88° East 442 509 18,700 1,320 Climbing Chicago Center
04:30PM 42.1400 -86.2583 87° East 442 509 20,100 1,380 Climbing Chicago Center
04:31PM 42.1458 -86.0900 91° East 447 514 21,500 1,260 Climbing Chicago Center
04:32PM 42.1428 -85.9164 91° East 453 521 22,700 1,200 Climbing Chicago Center
04:33PM 42.1414 -85.7372 90° East 464 534 24,000 1,080 Climbing Chicago Center
04:34PM 42.1406 -85.5775 92° East 469 540 24,900 480 Climbing Chicago Center
04:35PM 42.1361 -85.3875 89° East 481 554 25,000 300 Climbing Chicago Center
04:36PM 42.1378 -85.2572 91° East 497 572 25,400 1,020 Climbing Cleveland Center
04:37PM 42.1350 -85.0667 90° East 523 602 26,700 1,320 Climbing Cleveland Center
04:38PM 42.1339 -84.8817 93° East 501 577 28,100 1,320 Climbing Cleveland Center
04:39PM 42.1267 -84.6794 92° East 496 571 29,400 1,320 Climbing Cleveland Center
04:40PM 42.1225 -84.4944 84° East 491 565 30,800 1,320 Climbing Cleveland Center
04:41PM 42.1367 -84.3189 68° East 478 550 32,100 1,260 Climbing Cleveland Center
04:42PM 42.1858 -84.1536 67° East 470 541 33,400 1,260 Climbing Cleveland Center
04:43PM 42.2389 -83.9881 68° East 472 543 34,700 780 Climbing Cleveland Center
04:44PM 42.2872 -83.8250 68° East 472 543 35,000 120 Climbing Cleveland Center
04:45PM 42.3400 -83.6481 70° East 477 549 35,000  Level Cleveland Center
04:46PM 42.3864 -83.4703 67° East 496 571 35,000  Level Cleveland Center
04:47PM 42.4383 -83.3067 68° East 507 583 35,000  Level Cleveland Center
04:48PM 42.4947 -83.1147 69° East 507 583 35,000  Level Cleveland Center
04:49PM 42.5444 -82.9392 68° East 499 574 35,000  Level Cleveland Center
04:50PM 42.5958 -82.7661 69° East 493 567 35,000  Level Cleveland Center
04:51PM 42.6428 -82.5956 68° East 484 557 35,000  Level Cleveland Center
04:52PM 42.6936 -82.4222 68° East 484 557 35,000  Level Cleveland Center
04:53PM 42.7442 -82.2483 70° East 490 564 35,000  Level Cleveland Center
04:54PM 42.7858 -82.0911 69° East 490 564 35,000  Level Cleveland Center
04:55PM 42.8361 -81.9111 74° East 490 564 35,000  Level Cleveland Center
04:56PM 42.8833 -81.6833 70° East 490 564 35,000  Level Toronto Center
04:57PM 42.9333 -81.5000 69° East 500 575 35,000  Level Toronto Center
04:58PM 42.9833 -81.3167 76° East 500 575 35,000  Level Toronto Center
04:59PM 43.0167 -81.1333 59° Northeast 510 587 35,000  Level Toronto Center
05:00PM 43.0833 -80.9833 58° Northeast 500 575 35,000  Level Toronto Center
05:01PM 43.1667 -80.8000 61° Northeast 500 575 35,000  Level Toronto Center
05:02PM 43.2333 -80.6333 59° Northeast 500 575 35,000  Level Toronto Center
05:03PM 43.3000 -80.4833 61° Northeast 490 564 35,000  Level Toronto Center
05:04PM 43.3667 -80.3167 58° Northeast 490 564 35,000  Level Toronto Center
05:05PM 43.4333 -80.1667 61° Northeast 480 552 35,000  Level Toronto Center
05:06PM 43.5000 -80.0000 67° East 480 552 35,000  Level Toronto Center
05:07PM 43.5500 -79.8333 58° Northeast 480 552 35,000  Level Toronto Center
05:08PM 43.6167 -79.6833 63° Northeast 480 552 35,000  Level Toronto Center
05:09PM 43.6833 -79.5000 67° East 480 552 35,000  Level Toronto Center
05:10PM 43.7333 -79.3333 67° East 490 564 35,000  Level Toronto Center
05:11PM 43.7833 -79.1667 63° Northeast 490 564 35,000  Level Toronto Center
05:12PM 43.8500 -78.9833 67° East 490 564 35,000  Level Toronto Center
05:13PM 43.9000 -78.8167 63° Northeast 490 564 35,000  Level Toronto Center
05:14PM 43.9667 -78.6333 74° East 490 564 35,000  Level Toronto Center
05:15PM 44.0000 -78.4667 69° East 500 575 35,000  Level Toronto Center
05:16PM 44.0500 -78.2833 63° Northeast 500 575 35,000  Level Toronto Center
05:17PM 44.1167 -78.1000 67° East 500 575 35,000  Level Toronto Center
05:18PM 44.1667 -77.9333 55° Northeast 500 575 35,000  Level Toronto Center
05:19PM 44.2500 -77.7667 55° Northeast 480 552 35,000 -900 Level Toronto Center
05:20PM 44.3167 -77.6333 55° Northeast 490 564 33,200 -2,160 Descending Toronto Center
05:21PM 44.4000 -77.4667 61° Northeast 500 575 30,700 -2,400 Descending Toronto Center
05:22PM 44.4667 -77.3000 58° Northeast 490 564 28,400 -2,460 Descending Toronto Center
05:23PM 44.5333 -77.1500 55° Northeast 470 541 25,800 -2,220 Descending Toronto Center
05:24PM 44.6000 -77.0167 57° Northeast 450 518 24,000 -1,380 Descending Toronto Center
05:25PM 44.6833 -76.8333 55° Northeast 440 506 23,100 -1,500 Descending Toronto Center
05:26PM 44.7500 -76.7000 51° Northeast 460 529 21,000 -2,100 Descending Toronto Center
05:27PM 44.8167 -76.5833 58° Northeast 460 529 18,900 -2,100 Descending Toronto Center
05:28PM 44.8833 -76.4333 51° Northeast 420 483 16,900 -2,160 Descending Toronto Center
05:29PM 44.9500 -76.3167 47° Northeast 390 449 14,600 -2,400 Descending Toronto Center
05:30PM 45.0167 -76.2167 55° Northeast 360 414 12,100 -2,040 Descending Toronto Center
05:31PM 45.0833 -76.0833 74° East 340 391 10,600 -1,320 Descending Toronto Center
05:32PM 45.1000 -76.0000 77° East 300 345 9,500 -1,320 Descending Toronto Center
05:33PM 45.1167 -75.9000 90° East 280 322 8,000 -1,560 Descending Toronto Center
05:34PM 45.1167 -75.7833 77° East 280 322 6,400 -1,380 Descending Toronto Center
05:35PM 45.1333 -75.6833 90° East 260 299 5,300 -1,080 Descending Toronto Center
05:36PM 45.1333 -75.5833 47° Northeast 220 253 4,300 -1,020 Descending Toronto Center
05:37PM 45.1667 -75.5333 47° Northeast 210 242 3,300 -1,020 Descending Toronto Center